createdAt,value
2022-08-26T00:02:20.484Z,20.09
2022-08-26T00:04:50.902Z,20.13
2022-08-26T00:07:19.625Z,20.11
2022-08-26T00:09:54.343Z,20.26
2022-08-26T00:12:27.914Z,20.14
2022-08-26T00:15:06.696Z,19.65
2022-08-26T00:17:35.580Z,20.16
2022-08-26T00:20:08.037Z,20.40
2022-08-26T00:22:37.489Z,20.36
2022-08-26T00:25:07.850Z,20.32
2022-08-26T00:27:38.203Z,20.04
2022-08-26T00:30:10.399Z,20.04
2022-08-26T00:32:39.722Z,20.14
2022-08-26T00:35:14.872Z,20.18
2022-08-26T00:37:44.740Z,20.03
2022-08-26T00:40:19.206Z,20.09
2022-08-26T00:42:48.062Z,19.96
2022-08-26T00:45:18.112Z,20.26
2022-08-26T00:47:49.690Z,19.93
2022-08-26T00:50:26.564Z,19.97
2022-08-26T00:52:58.969Z,19.81
2022-08-26T00:55:34.647Z,19.98
2022-08-26T00:58:09.787Z,20.07
2022-08-26T01:00:38.684Z,20.16
2022-08-26T01:03:11.460Z,20.00
2022-08-26T01:05:42.704Z,19.95
2022-08-26T01:08:13.906Z,19.94
2022-08-26T01:10:43.627Z,20.00
2022-08-26T01:13:14.235Z,20.04
2022-08-26T01:15:48.597Z,20.25
2022-08-26T01:18:17.739Z,20.15
2022-08-26T01:20:59.948Z,20.13
2022-08-26T01:23:37.785Z,20.27
2022-08-26T01:26:19.723Z,20.28
2022-08-26T01:28:51.827Z,20.14
2022-08-26T01:31:25.921Z,20.08
2022-08-26T01:34:00.884Z,20.28
2022-08-26T01:36:30.618Z,20.32
2022-08-26T01:39:00.884Z,20.19
2022-08-26T01:41:36.527Z,20.03
2022-08-26T01:44:10.000Z,20.08
2022-08-26T01:46:38.877Z,20.19
2022-08-26T01:49:09.658Z,20.18
2022-08-26T01:51:40.351Z,19.96
2022-08-26T01:54:11.955Z,20.07
2022-08-26T01:56:42.989Z,19.93
2022-08-26T01:59:16.016Z,20.24
2022-08-26T02:01:49.398Z,19.97
2022-08-26T02:04:23.735Z,19.93
2022-08-26T02:06:54.763Z,19.79
2022-08-26T02:09:26.789Z,19.69
2022-08-26T02:11:56.053Z,19.49
2022-08-26T02:14:29.286Z,19.65
2022-08-26T02:16:58.567Z,19.51
2022-08-26T02:19:32.925Z,19.87
2022-08-26T02:22:06.533Z,19.63
2022-08-26T02:24:50.159Z,19.56
2022-08-26T02:27:22.900Z,19.71
2022-08-26T02:29:57.487Z,19.35
2022-08-26T02:32:27.125Z,19.23
2022-08-26T02:34:58.234Z,19.32
2022-08-26T02:37:30.677Z,19.53
2022-08-26T02:40:01.295Z,19.53
2022-08-26T02:42:30.537Z,19.32
2022-08-26T02:44:59.979Z,19.67
2022-08-26T02:47:29.250Z,19.55
2022-08-26T02:50:01.911Z,19.44
2022-08-26T02:52:31.396Z,19.18
2022-08-26T02:55:02.710Z,19.23
2022-08-26T02:57:32.101Z,19.56
2022-08-26T03:00:01.867Z,19.74
2022-08-26T03:02:31.909Z,19.53
2022-08-26T03:05:02.280Z,19.46
2022-08-26T03:07:31.424Z,19.40
2022-08-26T03:10:00.770Z,19.38
2022-08-26T03:12:30.855Z,19.51
2022-08-26T03:14:59.595Z,19.55
2022-08-26T03:17:31.243Z,18.82
2022-08-26T03:20:00.431Z,19.54
2022-08-26T03:22:34.654Z,19.46
2022-08-26T03:25:03.924Z,19.41
2022-08-26T03:27:34.242Z,19.47
2022-08-26T03:30:21.014Z,19.43
2022-08-26T03:32:51.882Z,19.24
2022-08-26T03:35:22.499Z,18.96
2022-08-26T03:37:52.182Z,18.98
2022-08-26T03:40:22.324Z,18.94
2022-08-26T03:42:53.199Z,19.05
2022-08-26T03:45:22.534Z,19.14
2022-08-26T03:47:51.250Z,18.99
2022-08-26T03:50:24.700Z,19.01
2022-08-26T03:52:55.726Z,19.12
2022-08-26T03:55:27.285Z,19.00
2022-08-26T03:57:57.449Z,19.11
2022-08-26T04:00:26.548Z,19.23
2022-08-26T04:02:55.314Z,18.99
2022-08-26T04:05:24.882Z,18.76
2022-08-26T04:07:54.166Z,18.91
2022-08-26T04:10:28.681Z,18.74
2022-08-26T04:13:00.534Z,18.89
2022-08-26T04:15:30.137Z,18.89
2022-08-26T04:17:58.844Z,18.84
2022-08-26T04:20:28.577Z,18.97
2022-08-26T04:22:59.631Z,19.09
2022-08-26T04:25:28.394Z,19.11
2022-08-26T04:27:57.852Z,19.08
2022-08-26T04:30:28.264Z,19.00
2022-08-26T04:32:57.194Z,19.01
2022-08-26T04:35:26.919Z,19.03
2022-08-26T04:37:56.117Z,19.01
2022-08-26T04:40:27.641Z,19.04
2022-08-26T04:42:56.519Z,18.83
2022-08-26T04:45:28.791Z,19.00
2022-08-26T04:47:57.602Z,19.03
2022-08-26T04:50:27.016Z,19.04
2022-08-26T04:52:56.656Z,19.13
2022-08-26T04:55:38.443Z,19.07
2022-08-26T04:58:10.203Z,19.05
2022-08-26T05:00:41.121Z,19.15
2022-08-26T05:03:10.616Z,19.15
2022-08-26T05:05:41.351Z,19.14
2022-08-26T05:08:11.277Z,19.23
2022-08-26T05:10:42.255Z,19.31
2022-08-26T05:13:15.577Z,19.18
2022-08-26T05:15:47.150Z,19.33
2022-08-26T05:18:19.980Z,19.56
2022-08-26T05:20:51.318Z,19.64
2022-08-26T05:23:23.720Z,19.48
2022-08-26T05:25:59.487Z,19.42
2022-08-26T05:28:31.213Z,19.17
2022-08-26T05:31:13.007Z,19.17
2022-08-26T05:33:44.173Z,18.98
2022-08-26T05:36:15.725Z,18.94
2022-08-26T05:38:45.305Z,18.84
2022-08-26T05:41:20.668Z,18.89
2022-08-26T05:43:53.011Z,18.86
2022-08-26T05:46:27.000Z,18.94
2022-08-26T05:48:55.912Z,19.00
2022-08-26T05:51:26.209Z,18.99
2022-08-26T05:53:58.234Z,19.07
2022-08-26T05:56:27.897Z,19.02
2022-08-26T05:58:58.446Z,18.84
2022-08-26T06:01:31.086Z,18.98
2022-08-26T06:04:05.443Z,19.03
2022-08-26T06:06:41.217Z,19.12
2022-08-26T06:09:11.577Z,19.01
2022-08-26T06:11:40.755Z,18.58
2022-08-26T06:14:19.023Z,18.94
2022-08-26T06:16:50.016Z,19.08
2022-08-26T06:19:19.390Z,19.12
2022-08-26T06:21:51.319Z,19.08
2022-08-26T06:24:41.123Z,19.20
2022-08-26T06:27:13.769Z,19.28
2022-08-26T06:29:43.214Z,19.20
2022-08-26T06:32:15.828Z,19.29
2022-08-26T06:34:45.067Z,19.17
2022-08-26T06:37:13.803Z,19.13
2022-08-26T06:39:42.836Z,19.30
2022-08-26T06:42:12.084Z,19.16
2022-08-26T06:44:44.752Z,19.20
2022-08-26T06:47:15.410Z,19.20
2022-08-26T06:49:44.324Z,19.15
2022-08-26T06:52:14.419Z,19.20
2022-08-26T06:54:49.412Z,19.30
2022-08-26T06:57:19.891Z,19.22
2022-08-26T06:59:51.219Z,19.32
2022-08-26T07:02:21.468Z,19.26
2022-08-26T07:04:51.169Z,19.00
2022-08-26T07:07:21.997Z,19.12
2022-08-26T07:09:53.499Z,19.18
2022-08-26T07:12:23.309Z,19.15
2022-08-26T07:14:54.818Z,19.26
2022-08-26T07:17:28.302Z,19.37
2022-08-26T07:19:57.368Z,19.24
2022-08-26T07:22:26.297Z,19.35
2022-08-26T07:24:55.751Z,19.27
2022-08-26T07:27:24.984Z,19.32
2022-08-26T07:29:58.083Z,19.55
2022-08-26T07:32:28.407Z,19.31
2022-08-26T07:34:58.942Z,19.46
2022-08-26T07:37:28.319Z,19.53
2022-08-26T07:40:00.228Z,19.73
2022-08-26T07:42:29.980Z,19.95
2022-08-26T07:44:58.783Z,19.42
2022-08-26T07:47:29.136Z,19.64
2022-08-26T07:49:59.172Z,19.50
2022-08-26T07:52:32.169Z,18.70
2022-08-26T07:55:04.461Z,19.47
2022-08-26T07:57:34.788Z,19.26
2022-08-26T08:00:09.676Z,19.23
2022-08-26T08:02:42.083Z,19.39
2022-08-26T08:05:16.191Z,19.65
2022-08-26T08:07:49.181Z,19.72
2022-08-26T08:10:27.578Z,19.62
2022-08-26T08:13:00.358Z,19.75
2022-08-26T08:15:32.302Z,19.96
2022-08-26T08:18:03.460Z,20.10
2022-08-26T08:20:33.758Z,19.88
2022-08-26T08:23:04.236Z,19.64
2022-08-26T08:25:34.479Z,19.40
2022-08-26T08:28:03.370Z,19.31
2022-08-26T08:30:40.283Z,19.67
2022-08-26T08:33:10.536Z,19.64
2022-08-26T08:35:43.733Z,19.38
2022-08-26T08:38:12.836Z,19.55
2022-08-26T08:40:43.072Z,19.38
2022-08-26T08:43:14.670Z,19.45
2022-08-26T08:45:47.342Z,19.45
2022-08-26T08:48:27.617Z,19.35
2022-08-26T08:51:03.469Z,19.40
2022-08-26T08:53:38.397Z,19.47
2022-08-26T08:56:23.703Z,19.54
2022-08-26T08:58:58.304Z,19.68
2022-08-26T09:01:37.968Z,19.65
2022-08-26T09:04:44.884Z,19.73
2022-08-26T09:07:17.826Z,19.70
2022-08-26T09:09:51.697Z,19.79
2022-08-26T09:12:29.525Z,19.85
2022-08-26T09:15:03.531Z,19.85
2022-08-26T09:17:44.680Z,19.77
2022-08-26T09:20:22.159Z,19.87
2022-08-26T09:22:51.430Z,19.86
2022-08-26T09:25:20.217Z,19.89
2022-08-26T09:27:54.161Z,20.01
2022-08-26T09:30:26.596Z,19.94
2022-08-26T09:33:01.679Z,19.97
2022-08-26T09:35:35.709Z,20.05
2022-08-26T09:38:26.754Z,20.01
2022-08-26T09:41:01.649Z,20.05
2022-08-26T09:43:31.259Z,20.02
2022-08-26T09:46:14.129Z,20.14
2022-08-26T09:48:43.981Z,20.19
2022-08-26T09:51:31.851Z,20.16
2022-08-26T09:54:05.658Z,19.92
2022-08-26T09:56:40.547Z,20.09
2022-08-26T09:59:11.286Z,20.52
2022-08-26T10:01:42.841Z,20.51
2022-08-26T10:04:15.450Z,20.24
2022-08-26T10:06:57.927Z,20.24
2022-08-26T10:09:28.178Z,20.21
2022-08-26T10:12:03.481Z,20.17
2022-08-26T10:14:39.590Z,20.35
2022-08-26T10:17:12.341Z,20.55
2022-08-26T10:19:56.791Z,20.44
2022-08-26T10:22:45.684Z,20.32
2022-08-26T10:25:23.047Z,20.44
2022-08-26T10:28:02.793Z,20.58
2022-08-26T10:30:34.497Z,20.84
2022-08-26T10:33:07.689Z,20.38
2022-08-26T10:35:49.618Z,20.29
2022-08-26T10:38:29.478Z,20.23
2022-08-26T10:41:09.893Z,19.88
2022-08-26T10:43:46.619Z,20.09
2022-08-26T10:46:27.417Z,19.96
2022-08-26T10:49:06.555Z,19.29
2022-08-26T10:51:42.320Z,20.51
2022-08-26T10:54:25.387Z,20.42
2022-08-26T10:57:01.192Z,20.32
2022-08-26T10:59:45.999Z,20.35
2022-08-26T11:02:24.165Z,20.58
2022-08-26T11:04:57.798Z,20.39
2022-08-26T11:07:41.293Z,20.36
2022-08-26T11:10:28.364Z,20.36
2022-08-26T11:13:00.060Z,20.56
2022-08-26T11:16:11.236Z,20.49
2022-08-26T11:18:46.310Z,19.89
2022-08-26T11:22:05.904Z,20.78
2022-08-26T11:24:48.240Z,20.80
2022-08-26T11:28:05.500Z,21.11
2022-08-26T11:30:47.821Z,20.85
2022-08-26T11:33:59.842Z,20.85
2022-08-26T11:37:04.193Z,21.32
2022-08-26T11:39:38.403Z,21.06
2022-08-26T11:42:27.619Z,21.18
2022-08-26T11:44:58.626Z,20.96
2022-08-26T11:47:33.102Z,20.75
2022-08-26T11:50:13.031Z,20.76
2022-08-26T11:52:41.908Z,21.36
2022-08-26T11:55:15.518Z,21.04
2022-08-26T11:57:47.119Z,20.88
2022-08-26T12:00:22.494Z,20.73
2022-08-26T12:02:55.752Z,20.73
2022-08-26T12:05:31.109Z,20.78
2022-08-26T12:08:07.303Z,21.04
2022-08-26T12:10:36.958Z,21.41
2022-08-26T12:13:07.372Z,20.85
2022-08-26T12:15:39.180Z,20.71
2022-08-26T12:18:28.957Z,20.86
2022-08-26T12:21:12.310Z,21.21
2022-08-26T12:23:46.737Z,21.00
2022-08-26T12:26:25.562Z,20.90
2022-08-26T12:28:58.160Z,20.95
2022-08-26T12:31:33.333Z,21.07
2022-08-26T12:34:06.123Z,20.86
2022-08-26T12:36:49.893Z,20.80
2022-08-26T12:39:28.514Z,20.95
2022-08-26T12:42:00.844Z,20.77
2022-08-26T12:44:34.530Z,20.69
2022-08-26T12:47:08.282Z,20.84
2022-08-26T12:49:40.600Z,20.89
2022-08-26T12:52:30.009Z,20.62
2022-08-26T12:55:02.817Z,20.73
2022-08-26T12:57:35.143Z,20.72
2022-08-26T13:00:40.942Z,20.72
2022-08-26T13:03:43.841Z,20.52
2022-08-26T13:06:27.324Z,20.05
2022-08-26T13:08:59.616Z,20.03
2022-08-26T13:11:31.968Z,20.07
2022-08-26T13:14:03.170Z,19.96
2022-08-26T13:16:36.573Z,19.90
2022-08-26T13:19:10.185Z,20.37
2022-08-26T13:21:47.856Z,20.36
2022-08-26T13:24:21.930Z,20.11
2022-08-26T13:26:53.322Z,20.42
2022-08-26T13:29:22.108Z,20.48
2022-08-26T13:31:51.732Z,20.82
2022-08-26T13:34:24.084Z,20.57
2022-08-26T13:36:58.312Z,20.28
2022-08-26T13:39:27.853Z,20.65
2022-08-26T13:41:56.591Z,20.50
2022-08-26T13:44:25.237Z,20.75
2022-08-26T13:46:56.349Z,21.24
2022-08-26T13:49:25.292Z,20.91
2022-08-26T13:51:54.325Z,21.06
2022-08-26T13:54:24.430Z,20.98
2022-08-26T13:56:53.571Z,21.49
2022-08-26T13:59:22.510Z,21.25
2022-08-26T14:01:51.451Z,20.91
2022-08-26T14:04:27.361Z,20.53
2022-08-26T14:06:56.903Z,20.92
2022-08-26T14:09:29.236Z,20.84
2022-08-26T14:12:00.981Z,20.81
2022-08-26T14:14:33.560Z,20.61
2022-08-26T14:17:03.044Z,20.55
2022-08-26T14:19:32.608Z,21.12
2022-08-26T14:22:01.905Z,20.94
2022-08-26T14:24:32.188Z,20.67
2022-08-26T14:27:04.349Z,20.88
2022-08-26T14:29:33.625Z,21.59
2022-08-26T14:32:06.946Z,21.40
2022-08-26T14:34:35.574Z,21.11
2022-08-26T14:37:07.642Z,21.05
2022-08-26T14:39:38.504Z,21.37
2022-08-26T14:42:09.071Z,21.11
2022-08-26T14:44:38.714Z,21.10
2022-08-26T14:47:08.044Z,21.10
2022-08-26T14:49:36.934Z,21.25
2022-08-26T14:52:06.283Z,21.30
2022-08-26T14:54:38.162Z,21.40
2022-08-26T14:57:12.369Z,21.71
2022-08-26T14:59:43.929Z,21.63
2022-08-26T15:02:27.804Z,21.75
2022-08-26T15:05:02.264Z,21.73
2022-08-26T15:07:31.163Z,21.73
2022-08-26T15:10:03.918Z,21.51
2022-08-26T15:12:32.691Z,21.80
2022-08-26T15:15:04.646Z,21.33
2022-08-26T15:17:33.845Z,21.38
2022-08-26T15:20:03.314Z,21.38
2022-08-26T15:22:31.996Z,21.53
2022-08-26T15:25:07.770Z,21.81
2022-08-26T15:27:40.407Z,21.67
2022-08-26T15:30:13.403Z,21.72
2022-08-26T15:32:44.877Z,21.42
2022-08-26T15:35:13.547Z,21.32
2022-08-26T15:37:42.252Z,21.82
2022-08-26T15:40:13.212Z,21.72
2022-08-26T15:42:42.121Z,21.57
2022-08-26T15:45:29.777Z,21.94
2022-08-26T15:48:04.325Z,21.84
2022-08-26T15:50:33.003Z,22.16
2022-08-26T15:53:01.701Z,21.81
2022-08-26T15:55:31.655Z,21.48
2022-08-26T15:58:01.026Z,21.33
2022-08-26T16:00:33.159Z,21.13
2022-08-26T16:03:01.883Z,21.06
2022-08-26T16:05:30.645Z,20.94
2022-08-26T16:08:00.178Z,20.93
2022-08-26T16:10:32.690Z,20.98
2022-08-26T16:13:04.577Z,20.83
2022-08-26T16:15:34.381Z,20.65
2022-08-26T16:18:04.392Z,20.55
2022-08-26T16:20:38.159Z,20.61
2022-08-26T16:23:08.767Z,20.77
2022-08-26T16:25:39.931Z,20.93
2022-08-26T16:28:11.638Z,21.27
2022-08-26T16:30:44.875Z,21.06
2022-08-26T16:33:15.007Z,20.98
2022-08-26T16:36:00.963Z,21.30
2022-08-26T16:38:32.644Z,21.20
2022-08-26T16:41:03.218Z,21.12
2022-08-26T16:43:31.915Z,21.33
2022-08-26T16:46:01.310Z,21.33
2022-08-26T16:48:30.524Z,20.86
2022-08-26T16:50:59.233Z,20.80
2022-08-26T16:53:28.383Z,20.89
2022-08-26T16:55:57.059Z,20.83
2022-08-26T16:58:27.146Z,20.67
2022-08-26T17:00:58.524Z,20.52
2022-08-26T17:03:29.871Z,20.49
2022-08-26T17:05:58.702Z,20.36
2022-08-26T17:08:28.560Z,20.30
2022-08-26T17:10:59.682Z,20.23
2022-08-26T17:13:35.886Z,20.11
2022-08-26T17:16:06.363Z,19.94
2022-08-26T17:18:36.047Z,19.95
2022-08-26T17:21:09.494Z,19.89
2022-08-26T17:23:43.904Z,20.09
2022-08-26T17:26:13.684Z,20.15
2022-08-26T17:28:43.701Z,20.05
2022-08-26T17:31:14.540Z,19.84
2022-08-26T17:33:44.455Z,19.82
2022-08-26T17:36:15.941Z,19.82
2022-08-26T17:38:44.963Z,19.82
2022-08-26T17:41:16.613Z,19.76
2022-08-26T17:43:47.114Z,19.91
2022-08-26T17:46:15.926Z,19.83
2022-08-26T17:48:47.067Z,19.92
2022-08-26T17:51:19.250Z,19.80
2022-08-26T17:53:51.647Z,19.70
2022-08-26T17:56:27.874Z,19.63
2022-08-26T17:59:02.471Z,18.85
2022-08-26T18:01:33.348Z,19.54
2022-08-26T18:04:02.787Z,19.49
2022-08-26T18:06:31.834Z,19.51
2022-08-26T18:09:02.145Z,19.48
2022-08-26T18:11:32.128Z,19.20
2022-08-26T18:14:02.438Z,19.24
2022-08-26T18:16:34.305Z,19.27
2022-08-26T18:19:03.449Z,19.14
2022-08-26T18:21:33.282Z,19.21
2022-08-26T18:24:02.317Z,19.11
2022-08-26T18:26:39.058Z,19.08
2022-08-26T18:29:10.657Z,19.03
2022-08-26T18:31:42.345Z,18.92
2022-08-26T18:34:13.096Z,18.90
2022-08-26T18:36:42.278Z,18.88
2022-08-26T18:39:12.797Z,18.77
2022-08-26T18:41:44.622Z,18.79
2022-08-26T18:44:19.021Z,18.77
2022-08-26T18:46:49.997Z,18.65
2022-08-26T18:49:20.941Z,18.62
2022-08-26T18:51:52.385Z,18.62
2022-08-26T18:54:22.066Z,18.63
2022-08-26T18:56:54.585Z,18.56
2022-08-26T18:59:28.401Z,18.46
2022-08-26T19:02:02.228Z,18.32
2022-08-26T19:04:31.560Z,18.29
2022-08-26T19:07:00.654Z,18.11
2022-08-26T19:09:32.232Z,18.13
2022-08-26T19:12:03.449Z,17.94
2022-08-26T19:14:35.912Z,18.02
2022-08-26T19:17:07.840Z,18.07
2022-08-26T19:19:37.609Z,18.06
2022-08-26T19:22:07.540Z,18.06
2022-08-26T19:24:36.557Z,17.86
2022-08-26T19:27:05.787Z,17.99
2022-08-26T19:29:36.811Z,17.90
2022-08-26T19:32:07.275Z,17.85
2022-08-26T19:34:36.421Z,17.86
2022-08-26T19:37:05.300Z,17.84
2022-08-26T19:39:37.563Z,17.73
2022-08-26T19:42:06.912Z,17.74
2022-08-26T19:44:54.876Z,17.29
2022-08-26T19:47:23.893Z,17.66
2022-08-26T19:49:54.678Z,17.55
2022-08-26T19:52:30.185Z,17.05
2022-08-26T19:54:59.839Z,17.33
2022-08-26T19:57:31.142Z,17.39
2022-08-26T20:00:06.065Z,17.44
2022-08-26T20:02:35.223Z,17.47
2022-08-26T20:05:06.074Z,17.48
2022-08-26T20:07:34.958Z,17.45
2022-08-26T20:10:05.605Z,16.92
2022-08-26T20:12:35.731Z,17.49
2022-08-26T20:15:09.890Z,17.47
2022-08-26T20:17:39.835Z,17.28
2022-08-26T20:20:32.946Z,17.22
2022-08-26T20:23:03.645Z,17.27
2022-08-26T20:25:34.009Z,17.22
2022-08-26T20:28:03.233Z,17.16
2022-08-26T20:30:33.755Z,17.21
2022-08-26T20:33:05.341Z,17.00
2022-08-26T20:35:34.333Z,17.07
2022-08-26T20:38:03.600Z,17.17
2022-08-26T20:40:33.545Z,17.13
2022-08-26T20:43:03.945Z,17.12
2022-08-26T20:45:34.228Z,17.12
2022-08-26T20:48:03.811Z,16.33
2022-08-26T20:50:33.227Z,16.95
2022-08-26T20:53:03.040Z,16.97
2022-08-26T20:55:34.544Z,16.98
2022-08-26T20:58:04.475Z,16.94
2022-08-26T21:00:34.683Z,16.95
2022-08-26T21:03:03.703Z,16.77
2022-08-26T21:05:32.910Z,16.83
2022-08-26T21:08:02.125Z,16.68
2022-08-26T21:10:32.249Z,16.82
2022-08-26T21:18:01.676Z,16.42
2022-08-26T21:21:33.932Z,16.46
2022-08-26T21:24:06.453Z,16.48
2022-08-26T21:32:06.908Z,16.48
2022-08-26T21:34:37.371Z,16.45
2022-08-26T21:37:15.342Z,16.44
2022-08-26T21:39:45.793Z,16.49
2022-08-26T21:42:15.639Z,16.49
2022-08-26T21:44:46.515Z,16.48
2022-08-26T21:47:22.369Z,16.47
2022-08-26T21:49:53.489Z,16.46
2022-08-26T21:52:22.807Z,16.44
2022-08-26T21:54:51.935Z,16.44
2022-08-26T21:57:21.566Z,16.38
2022-08-26T22:04:54.003Z,16.22
2022-08-26T22:07:23.700Z,16.34
2022-08-26T22:09:53.066Z,16.36
2022-08-26T22:12:22.218Z,16.33
2022-08-26T22:14:51.860Z,16.30
2022-08-26T22:17:23.949Z,16.29
2022-08-26T22:19:55.390Z,16.30
2022-08-26T22:22:28.644Z,16.29
2022-08-26T22:24:58.346Z,16.37
2022-08-26T22:27:28.263Z,16.36
2022-08-26T22:29:58.260Z,16.36
2022-08-26T22:32:29.846Z,16.30
2022-08-26T22:35:00.408Z,16.20
2022-08-26T22:37:29.703Z,16.13
2022-08-26T22:39:59.198Z,15.85
2022-08-26T22:42:28.312Z,15.98
2022-08-26T22:44:57.624Z,15.91
2022-08-26T22:47:27.005Z,15.90
2022-08-26T22:49:56.918Z,15.88
2022-08-26T22:52:27.794Z,15.85
2022-08-26T22:54:57.198Z,15.96
2022-08-26T22:57:26.645Z,15.99
2022-08-26T22:59:56.799Z,15.97
2022-08-26T23:02:25.946Z,15.91
2022-08-26T23:04:58.316Z,15.85
2022-08-26T23:07:28.885Z,15.91
2022-08-26T23:09:58.035Z,15.94
2022-08-26T23:12:29.472Z,15.92
2022-08-26T23:14:58.687Z,15.73
2022-08-26T23:17:27.654Z,15.63
2022-08-26T23:19:58.374Z,15.61
2022-08-26T23:22:29.650Z,15.65
2022-08-26T23:25:00.425Z,15.52
2022-08-26T23:27:30.265Z,15.53
2022-08-26T23:30:00.574Z,15.52
2022-08-26T23:32:32.397Z,15.45
2022-08-26T23:35:01.789Z,15.42
2022-08-26T23:37:35.896Z,15.38
2022-08-26T23:40:08.432Z,15.24
2022-08-26T23:42:38.643Z,15.23
2022-08-26T23:45:12.252Z,15.19
2022-08-26T23:47:41.847Z,15.04
2022-08-26T23:50:12.188Z,15.00
2022-08-26T23:53:01.006Z,14.98
2022-08-26T23:55:31.766Z,15.00
2022-08-26T23:58:01.348Z,15.04
